sensor_id;sensor_type;location;lat;lon;timestamp;temperature;humidity
75134;HTU21D;73631;44.326;40.200;2023-12-20T00:01:55;0.51;76.89
75134;HTU21D;73631;44.326;40.200;2023-12-20T00:04:21;0.51;76.90
75134;HTU21D;73631;44.326;40.200;2023-12-20T00:06:48;0.51;76.91
75134;HTU21D;73631;44.326;40.200;2023-12-20T00:09:14;0.51;76.91
75134;HTU21D;73631;44.326;40.200;2023-12-20T00:11:40;0.51;76.92
75134;HTU21D;73631;44.326;40.200;2023-12-20T00:14:08;0.51;76.91
75134;HTU21D;73631;44.326;40.200;2023-12-20T00:16:34;0.50;76.92
75134;HTU21D;73631;44.326;40.200;2023-12-20T00:19:01;0.49;76.89
75134;HTU21D;73631;44.326;40.200;2023-12-20T00:21:27;0.48;76.92
75134;HTU21D;73631;44.326;40.200;2023-12-20T00:23:54;0.46;76.89
75134;HTU21D;73631;44.326;40.200;2023-12-20T00:26:20;0.43;76.82
75134;HTU21D;73631;44.326;40.200;2023-12-20T00:28:47;0.40;76.82
75134;HTU21D;73631;44.326;40.200;2023-12-20T00:31:13;0.38;76.83
75134;HTU21D;73631;44.326;40.200;2023-12-20T00:33:40;0.37;76.92
75134;HTU21D;73631;44.326;40.200;2023-12-20T00:36:11;0.37;76.98
75134;HTU21D;73631;44.326;40.200;2023-12-20T00:38:38;0.37;77.00
75134;HTU21D;73631;44.326;40.200;2023-12-20T00:41:04;0.37;77.02
75134;HTU21D;73631;44.326;40.200;2023-12-20T00:43:30;0.37;77.00
75134;HTU21D;73631;44.326;40.200;2023-12-20T00:45:57;0.36;76.95
75134;HTU21D;73631;44.326;40.200;2023-12-20T00:48:26;0.33;76.91
75134;HTU21D;73631;44.326;40.200;2023-12-20T00:50:57;0.32;76.93
75134;HTU21D;73631;44.326;40.200;2023-12-20T00:53:23;0.29;76.92
75134;HTU21D;73631;44.326;40.200;2023-12-20T00:55:50;0.28;77.02
75134;HTU21D;73631;44.326;40.200;2023-12-20T00:58:17;0.29;77.04
75134;HTU21D;73631;44.326;40.200;2023-12-20T01:00:43;0.29;76.99
75134;HTU21D;73631;44.326;40.200;2023-12-20T01:03:09;0.29;76.99
75134;HTU21D;73631;44.326;40.200;2023-12-20T01:05:36;0.28;76.96
75134;HTU21D;73631;44.326;40.200;2023-12-20T01:08:02;0.28;76.97
75134;HTU21D;73631;44.326;40.200;2023-12-20T01:10:29;0.28;76.98
75134;HTU21D;73631;44.326;40.200;2023-12-20T01:12:55;0.28;77.02
75134;HTU21D;73631;44.326;40.200;2023-12-20T01:15:22;0.28;77.04
75134;HTU21D;73631;44.326;40.200;2023-12-20T01:17:49;0.29;77.01
75134;HTU21D;73631;44.326;40.200;2023-12-20T01:20:16;0.28;77.02
75134;HTU21D;73631;44.326;40.200;2023-12-20T01:22:43;0.27;77.03
75134;HTU21D;73631;44.326;40.200;2023-12-20T01:25:12;0.23;77.07
75134;HTU21D;73631;44.326;40.200;2023-12-20T01:27:38;0.23;77.14
75134;HTU21D;73631;44.326;40.200;2023-12-20T01:30:05;0.23;77.12
75134;HTU21D;73631;44.326;40.200;2023-12-20T01:32:31;0.24;77.10
75134;HTU21D;73631;44.326;40.200;2023-12-20T01:34:58;0.24;77.09
75134;HTU21D;73631;44.326;40.200;2023-12-20T01:37:24;0.25;77.08
75134;HTU21D;73631;44.326;40.200;2023-12-20T01:39:52;0.24;77.08
75134;HTU21D;73631;44.326;40.200;2023-12-20T01:42:19;0.25;77.10
75134;HTU21D;73631;44.326;40.200;2023-12-20T01:44:45;0.24;77.05
75134;HTU21D;73631;44.326;40.200;2023-12-20T01:47:12;0.23;77.02
75134;HTU21D;73631;44.326;40.200;2023-12-20T01:49:39;0.21;77.03
75134;HTU21D;73631;44.326;40.200;2023-12-20T01:52:06;0.20;77.08
75134;HTU21D;73631;44.326;40.200;2023-12-20T01:54:34;0.20;77.13
75134;HTU21D;73631;44.326;40.200;2023-12-20T01:57:02;0.19;77.15
75134;HTU21D;73631;44.326;40.200;2023-12-20T01:59:29;0.19;77.11
75134;HTU21D;73631;44.326;40.200;2023-12-20T02:01:57;0.19;77.05
75134;HTU21D;73631;44.326;40.200;2023-12-20T02:04:24;0.15;77.02
75134;HTU21D;73631;44.326;40.200;2023-12-20T02:06:52;0.14;77.02
75134;HTU21D;73631;44.326;40.200;2023-12-20T02:09:19;0.13;77.12
75134;HTU21D;73631;44.326;40.200;2023-12-20T02:11:46;0.12;77.17
75134;HTU21D;73631;44.326;40.200;2023-12-20T02:14:12;0.12;77.20
75134;HTU21D;73631;44.326;40.200;2023-12-20T02:16:39;0.09;77.17
75134;HTU21D;73631;44.326;40.200;2023-12-20T02:19:13;0.08;77.15
75134;HTU21D;73631;44.326;40.200;2023-12-20T02:21:39;0.05;77.16
75134;HTU21D;73631;44.326;40.200;2023-12-20T02:24:06;0.03;77.21
75134;HTU21D;73631;44.326;40.200;2023-12-20T02:26:33;0.04;77.23
75134;HTU21D;73631;44.326;40.200;2023-12-20T02:29:00;0.04;77.20
75134;HTU21D;73631;44.326;40.200;2023-12-20T02:31:27;0.02;77.11
75134;HTU21D;73631;44.326;40.200;2023-12-20T02:33:53;-0.00;77.08
75134;HTU21D;73631;44.326;40.200;2023-12-20T02:36:20;-0.03;77.09
75134;HTU21D;73631;44.326;40.200;2023-12-20T02:38:46;-0.03;77.16
75134;HTU21D;73631;44.326;40.200;2023-12-20T02:41:13;-0.02;77.18
75134;HTU21D;73631;44.326;40.200;2023-12-20T02:43:41;-0.03;77.17
75134;HTU21D;73631;44.326;40.200;2023-12-20T02:46:08;-0.05;77.22
75134;HTU21D;73631;44.326;40.200;2023-12-20T02:48:34;-0.03;77.27
75134;HTU21D;73631;44.326;40.200;2023-12-20T02:51:01;-0.02;77.27
75134;HTU21D;73631;44.326;40.200;2023-12-20T02:53:27;-0.01;77.27
75134;HTU21D;73631;44.326;40.200;2023-12-20T02:55:53;-0.02;77.24
75134;HTU21D;73631;44.326;40.200;2023-12-20T02:58:20;-0.02;77.20
75134;HTU21D;73631;44.326;40.200;2023-12-20T03:00:46;-0.01;77.23
75134;HTU21D;73631;44.326;40.200;2023-12-20T03:03:12;-0.01;77.19
75134;HTU21D;73631;44.326;40.200;2023-12-20T03:05:39;-0.03;77.09
75134;HTU21D;73631;44.326;40.200;2023-12-20T03:08:05;-0.08;77.04
75134;HTU21D;73631;44.326;40.200;2023-12-20T03:10:32;-0.11;77.08
75134;HTU21D;73631;44.326;40.200;2023-12-20T03:12:58;-0.12;77.13
75134;HTU21D;73631;44.326;40.200;2023-12-20T03:15:25;-0.17;77.19
75134;HTU21D;73631;44.326;40.200;2023-12-20T03:17:51;-0.17;77.27
75134;HTU21D;73631;44.326;40.200;2023-12-20T03:20:17;-0.17;77.32
75134;HTU21D;73631;44.326;40.200;2023-12-20T03:22:44;-0.16;77.35
75134;HTU21D;73631;44.326;40.200;2023-12-20T03:25:10;-0.16;77.30
75134;HTU21D;73631;44.326;40.200;2023-12-20T03:27:37;-0.17;77.30
75134;HTU21D;73631;44.326;40.200;2023-12-20T03:30:07;-0.17;77.24
75134;HTU21D;73631;44.326;40.200;2023-12-20T03:32:33;-0.20;77.24
75134;HTU21D;73631;44.326;40.200;2023-12-20T03:35:00;-0.21;77.26
75134;HTU21D;73631;44.326;40.200;2023-12-20T03:37:26;-0.21;77.27
75134;HTU21D;73631;44.326;40.200;2023-12-20T03:39:53;-0.20;77.28
75134;HTU21D;73631;44.326;40.200;2023-12-20T03:42:19;-0.21;77.27
75134;HTU21D;73631;44.326;40.200;2023-12-20T03:44:46;-0.22;77.35
75134;HTU21D;73631;44.326;40.200;2023-12-20T03:47:12;-0.22;77.38
75134;HTU21D;73631;44.326;40.200;2023-12-20T03:49:38;-0.22;77.44
75134;HTU21D;73631;44.326;40.200;2023-12-20T03:52:05;-0.20;77.41
75134;HTU21D;73631;44.326;40.200;2023-12-20T03:54:31;-0.21;77.33
75134;HTU21D;73631;44.326;40.200;2023-12-20T03:56:58;-0.23;77.34
75134;HTU21D;73631;44.326;40.200;2023-12-20T03:59:24;-0.23;77.43
75134;HTU21D;73631;44.326;40.200;2023-12-20T04:01:51;-0.24;77.42
75134;HTU21D;73631;44.326;40.200;2023-12-20T04:04:17;-0.25;77.35
75134;HTU21D;73631;44.326;40.200;2023-12-20T04:06:43;-0.28;77.29
75134;HTU21D;73631;44.326;40.200;2023-12-20T04:09:10;-0.28;77.27
75134;HTU21D;73631;44.326;40.200;2023-12-20T04:11:37;-0.30;77.29
75134;HTU21D;73631;44.326;40.200;2023-12-20T04:14:03;-0.31;77.28
75134;HTU21D;73631;44.326;40.200;2023-12-20T04:16:34;-0.34;77.29
75134;HTU21D;73631;44.326;40.200;2023-12-20T04:19:01;-0.36;77.37
75134;HTU21D;73631;44.326;40.200;2023-12-20T04:21:28;-0.37;77.48
75134;HTU21D;73631;44.326;40.200;2023-12-20T04:23:55;-0.35;77.47
75134;HTU21D;73631;44.326;40.200;2023-12-20T04:26:21;-0.36;77.47
75134;HTU21D;73631;44.326;40.200;2023-12-20T04:28:48;-0.36;77.42
75134;HTU21D;73631;44.326;40.200;2023-12-20T04:31:14;-0.35;77.40
75134;HTU21D;73631;44.326;40.200;2023-12-20T04:33:41;-0.36;77.40
75134;HTU21D;73631;44.326;40.200;2023-12-20T04:36:08;-0.37;77.44
75134;HTU21D;73631;44.326;40.200;2023-12-20T04:38:35;-0.35;77.43
75134;HTU21D;73631;44.326;40.200;2023-12-20T04:41:02;-0.32;77.44
75134;HTU21D;73631;44.326;40.200;2023-12-20T04:43:28;-0.32;77.44
75134;HTU21D;73631;44.326;40.200;2023-12-20T04:45:56;-0.32;77.45
75134;HTU21D;73631;44.326;40.200;2023-12-20T04:48:22;-0.32;77.48
75134;HTU21D;73631;44.326;40.200;2023-12-20T04:50:49;-0.30;77.56
75134;HTU21D;73631;44.326;40.200;2023-12-20T04:53:15;-0.28;77.60
75134;HTU21D;73631;44.326;40.200;2023-12-20T04:55:42;-0.26;77.58
75134;HTU21D;73631;44.326;40.200;2023-12-20T04:58:08;-0.27;77.50
75134;HTU21D;73631;44.326;40.200;2023-12-20T05:00:34;-0.30;77.40
75134;HTU21D;73631;44.326;40.200;2023-12-20T05:03:01;-0.32;77.40
75134;HTU21D;73631;44.326;40.200;2023-12-20T05:05:27;-0.36;77.37
75134;HTU21D;73631;44.326;40.200;2023-12-20T05:07:54;-0.38;77.40
75134;HTU21D;73631;44.326;40.200;2023-12-20T05:10:20;-0.42;77.39
75134;HTU21D;73631;44.326;40.200;2023-12-20T05:12:47;-0.44;77.40
75134;HTU21D;73631;44.326;40.200;2023-12-20T05:15:13;-0.45;77.49
75134;HTU21D;73631;44.326;40.200;2023-12-20T05:17:40;-0.44;77.52
75134;HTU21D;73631;44.326;40.200;2023-12-20T05:20:07;-0.44;77.55
75134;HTU21D;73631;44.326;40.200;2023-12-20T05:22:34;-0.44;77.53
75134;HTU21D;73631;44.326;40.200;2023-12-20T05:25:00;-0.47;77.51
75134;HTU21D;73631;44.326;40.200;2023-12-20T05:27:27;-0.49;77.54
75134;HTU21D;73631;44.326;40.200;2023-12-20T05:29:53;-0.47;77.60
75134;HTU21D;73631;44.326;40.200;2023-12-20T05:32:24;-0.46;77.61
75134;HTU21D;73631;44.326;40.200;2023-12-20T05:34:50;-0.47;77.61
75134;HTU21D;73631;44.326;40.200;2023-12-20T05:37:17;-0.46;77.70
75134;HTU21D;73631;44.326;40.200;2023-12-20T05:39:43;-0.41;77.72
75134;HTU21D;73631;44.326;40.200;2023-12-20T05:42:09;-0.42;77.68
75134;HTU21D;73631;44.326;40.200;2023-12-20T05:44:36;-0.41;77.66
75134;HTU21D;73631;44.326;40.200;2023-12-20T05:47:03;-0.42;77.67
75134;HTU21D;73631;44.326;40.200;2023-12-20T05:49:30;-0.42;77.69
75134;HTU21D;73631;44.326;40.200;2023-12-20T05:51:56;-0.38;77.77
75134;HTU21D;73631;44.326;40.200;2023-12-20T05:54:23;-0.32;77.82
75134;HTU21D;73631;44.326;40.200;2023-12-20T05:56:49;-0.25;77.83
75134;HTU21D;73631;44.326;40.200;2023-12-20T05:59:17;-0.21;77.82
75134;HTU21D;73631;44.326;40.200;2023-12-20T06:01:43;-0.20;77.82
75134;HTU21D;73631;44.326;40.200;2023-12-20T06:04:10;-0.16;77.85
75134;HTU21D;73631;44.326;40.200;2023-12-20T06:06:41;-0.11;77.88
75134;HTU21D;73631;44.326;40.200;2023-12-20T06:09:09;-0.07;77.93
75134;HTU21D;73631;44.326;40.200;2023-12-20T06:11:35;-0.00;78.06
75134;HTU21D;73631;44.326;40.200;2023-12-20T06:14:03;0.06;78.02
75134;HTU21D;73631;44.326;40.200;2023-12-20T06:16:29;0.14;78.07
75134;HTU21D;73631;44.326;40.200;2023-12-20T06:18:56;0.20;78.08
75134;HTU21D;73631;44.326;40.200;2023-12-20T06:21:22;0.30;78.04
75134;HTU21D;73631;44.326;40.200;2023-12-20T06:23:49;0.34;78.01
75134;HTU21D;73631;44.326;40.200;2023-12-20T06:26:15;0.40;78.08
75134;HTU21D;73631;44.326;40.200;2023-12-20T06:28:42;0.46;78.08
75134;HTU21D;73631;44.326;40.200;2023-12-20T06:31:09;0.54;78.13
75134;HTU21D;73631;44.326;40.200;2023-12-20T06:33:35;0.63;78.34
75134;HTU21D;73631;44.326;40.200;2023-12-20T06:36:02;0.77;78.44
75134;HTU21D;73631;44.326;40.200;2023-12-20T06:38:28;0.89;78.38
75134;HTU21D;73631;44.326;40.200;2023-12-20T06:40:55;1.02;78.28
75134;HTU21D;73631;44.326;40.200;2023-12-20T06:43:23;1.11;78.32
75134;HTU21D;73631;44.326;40.200;2023-12-20T06:45:50;1.21;78.38
75134;HTU21D;73631;44.326;40.200;2023-12-20T06:48:17;1.33;78.30
75134;HTU21D;73631;44.326;40.200;2023-12-20T06:50:43;1.48;78.28
75134;HTU21D;73631;44.326;40.200;2023-12-20T06:53:09;1.63;78.18
75134;HTU21D;73631;44.326;40.200;2023-12-20T06:55:36;1.77;78.09
75134;HTU21D;73631;44.326;40.200;2023-12-20T06:58:03;1.91;78.08
75134;HTU21D;73631;44.326;40.200;2023-12-20T07:00:32;2.06;77.95
75134;HTU21D;73631;44.326;40.200;2023-12-20T07:02:58;2.17;77.76
75134;HTU21D;73631;44.326;40.200;2023-12-20T07:05:25;2.29;77.66
75134;HTU21D;73631;44.326;40.200;2023-12-20T07:07:51;2.40;77.64
75134;HTU21D;73631;44.326;40.200;2023-12-20T07:10:18;2.52;77.73
75134;HTU21D;73631;44.326;40.200;2023-12-20T07:12:45;2.65;77.69
75134;HTU21D;73631;44.326;40.200;2023-12-20T07:15:12;2.81;77.67
75134;HTU21D;73631;44.326;40.200;2023-12-20T07:17:39;2.96;77.55
75134;HTU21D;73631;44.326;40.200;2023-12-20T07:20:06;3.10;77.40
75134;HTU21D;73631;44.326;40.200;2023-12-20T07:22:36;3.21;77.32
75134;HTU21D;73631;44.326;40.200;2023-12-20T07:25:02;3.31;77.25
75134;HTU21D;73631;44.326;40.200;2023-12-20T07:27:30;3.44;77.21
75134;HTU21D;73631;44.326;40.200;2023-12-20T07:29:57;3.55;77.17
75134;HTU21D;73631;44.326;40.200;2023-12-20T07:32:24;3.65;77.08
75134;HTU21D;73631;44.326;40.200;2023-12-20T07:34:51;3.76;77.05
75134;HTU21D;73631;44.326;40.200;2023-12-20T07:37:17;3.90;77.05
75134;HTU21D;73631;44.326;40.200;2023-12-20T07:39:44;4.04;76.91
75134;HTU21D;73631;44.326;40.200;2023-12-20T07:42:10;4.17;76.85
75134;HTU21D;73631;44.326;40.200;2023-12-20T07:44:37;4.29;76.74
75134;HTU21D;73631;44.326;40.200;2023-12-20T07:47:05;4.42;76.66
75134;HTU21D;73631;44.326;40.200;2023-12-20T07:49:32;4.54;76.58
75134;HTU21D;73631;44.326;40.200;2023-12-20T07:51:58;4.69;76.51
75134;HTU21D;73631;44.326;40.200;2023-12-20T07:54:25;4.86;76.45
75134;HTU21D;73631;44.326;40.200;2023-12-20T07:56:51;5.00;76.24
75134;HTU21D;73631;44.326;40.200;2023-12-20T07:59:18;5.10;76.10
75134;HTU21D;73631;44.326;40.200;2023-12-20T08:01:44;5.22;76.01
75134;HTU21D;73631;44.326;40.200;2023-12-20T08:04:11;5.33;75.99
75134;HTU21D;73631;44.326;40.200;2023-12-20T08:06:37;5.45;75.93
75134;HTU21D;73631;44.326;40.200;2023-12-20T08:09:04;5.57;75.74
75134;HTU21D;73631;44.326;40.200;2023-12-20T08:11:30;5.70;75.71
75134;HTU21D;73631;44.326;40.200;2023-12-20T08:13:57;5.89;75.69
75134;HTU21D;73631;44.326;40.200;2023-12-20T08:16:24;6.06;75.45
75134;HTU21D;73631;44.326;40.200;2023-12-20T08:18:51;6.21;75.29
75134;HTU21D;73631;44.326;40.200;2023-12-20T08:21:18;6.36;75.19
75134;HTU21D;73631;44.326;40.200;2023-12-20T08:23:48;6.54;75.00
75134;HTU21D;73631;44.326;40.200;2023-12-20T08:26:19;6.70;74.87
75134;HTU21D;73631;44.326;40.200;2023-12-20T08:28:49;6.86;74.76
75134;HTU21D;73631;44.326;40.200;2023-12-20T08:31:16;7.04;74.61
75134;HTU21D;73631;44.326;40.200;2023-12-20T08:33:44;7.20;74.41
75134;HTU21D;73631;44.326;40.200;2023-12-20T08:36:12;7.38;74.31
75134;HTU21D;73631;44.326;40.200;2023-12-20T08:38:38;7.54;74.03
75134;HTU21D;73631;44.326;40.200;2023-12-20T08:41:06;7.64;73.88
75134;HTU21D;73631;44.326;40.200;2023-12-20T08:43:34;7.75;73.81
75134;HTU21D;73631;44.326;40.200;2023-12-20T08:46:02;7.89;73.86
75134;HTU21D;73631;44.326;40.200;2023-12-20T08:48:28;8.07;73.67
75134;HTU21D;73631;44.326;40.200;2023-12-20T08:50:56;8.26;73.51
75134;HTU21D;73631;44.326;40.200;2023-12-20T08:53:23;8.46;73.39
75134;HTU21D;73631;44.326;40.200;2023-12-20T08:55:49;8.67;73.19
75134;HTU21D;73631;44.326;40.200;2023-12-20T08:58:16;8.89;72.93
75134;HTU21D;73631;44.326;40.200;2023-12-20T09:00:43;9.10;72.76
75134;HTU21D;73631;44.326;40.200;2023-12-20T09:03:09;9.32;72.51
75134;HTU21D;73631;44.326;40.200;2023-12-20T09:05:36;9.53;72.33
75134;HTU21D;73631;44.326;40.200;2023-12-20T09:08:02;9.78;72.10
75134;HTU21D;73631;44.326;40.200;2023-12-20T09:10:29;10.00;71.84
75134;HTU21D;73631;44.326;40.200;2023-12-20T09:12:56;10.21;71.45
75134;HTU21D;73631;44.326;40.200;2023-12-20T09:15:24;10.36;71.16
75134;HTU21D;73631;44.326;40.200;2023-12-20T09:17:51;10.49;71.10
75134;HTU21D;73631;44.326;40.200;2023-12-20T09:20:18;10.67;71.00
75134;HTU21D;73631;44.326;40.200;2023-12-20T09:22:45;10.86;70.64
75134;HTU21D;73631;44.326;40.200;2023-12-20T09:25:12;11.04;70.61
75134;HTU21D;73631;44.326;40.200;2023-12-20T09:27:40;11.26;70.21
75134;HTU21D;73631;44.326;40.200;2023-12-20T09:30:07;11.48;70.01
75134;HTU21D;73631;44.326;40.200;2023-12-20T09:32:34;11.70;69.74
75134;HTU21D;73631;44.326;40.200;2023-12-20T09:35:02;11.93;69.45
75134;HTU21D;73631;44.326;40.200;2023-12-20T09:37:28;12.18;69.11
75134;HTU21D;73631;44.326;40.200;2023-12-20T09:39:55;12.38;68.64
75134;HTU21D;73631;44.326;40.200;2023-12-20T09:42:29;12.58;68.26
75134;HTU21D;73631;44.326;40.200;2023-12-20T09:45:02;12.75;68.16
75134;HTU21D;73631;44.326;40.200;2023-12-20T09:47:31;12.93;68.13
75134;HTU21D;73631;44.326;40.200;2023-12-20T09:49:58;13.08;67.75
75134;HTU21D;73631;44.326;40.200;2023-12-20T09:52:25;13.25;67.67
75134;HTU21D;73631;44.326;40.200;2023-12-20T09:54:53;13.46;67.27
75134;HTU21D;73631;44.326;40.200;2023-12-20T09:57:21;13.63;67.08
75134;HTU21D;73631;44.326;40.200;2023-12-20T09:59:47;13.79;66.75
75134;HTU21D;73631;44.326;40.200;2023-12-20T10:02:14;13.94;66.48
75134;HTU21D;73631;44.326;40.200;2023-12-20T10:04:47;14.05;65.90
75134;HTU21D;73631;44.326;40.200;2023-12-20T10:07:15;14.18;65.67
75134;HTU21D;73631;44.326;40.200;2023-12-20T10:09:42;14.26;65.44
75134;HTU21D;73631;44.326;40.200;2023-12-20T10:12:10;14.33;64.88
75134;HTU21D;73631;44.326;40.200;2023-12-20T10:14:38;14.39;64.80
75134;HTU21D;73631;44.326;40.200;2023-12-20T10:17:05;14.50;64.63
75134;HTU21D;73631;44.326;40.200;2023-12-20T10:19:32;14.60;64.40
75134;HTU21D;73631;44.326;40.200;2023-12-20T10:21:59;14.71;64.05
75134;HTU21D;73631;44.326;40.200;2023-12-20T10:24:28;14.81;63.87
75134;HTU21D;73631;44.326;40.200;2023-12-20T10:27:06;14.93;63.73
75134;HTU21D;73631;44.326;40.200;2023-12-20T10:29:36;15.01;62.81
75134;HTU21D;73631;44.326;40.200;2023-12-20T10:32:26;15.01;63.84
75134;HTU21D;73631;44.326;40.200;2023-12-20T10:34:54;15.02;62.75
75134;HTU21D;73631;44.326;40.200;2023-12-20T10:37:23;15.01;62.92
75134;HTU21D;73631;44.326;40.200;2023-12-20T10:39:52;15.08;62.66
75134;HTU21D;73631;44.326;40.200;2023-12-20T10:42:23;15.14;62.60
75134;HTU21D;73631;44.326;40.200;2023-12-20T10:44:51;15.22;62.41
75134;HTU21D;73631;44.326;40.200;2023-12-20T10:47:21;15.25;61.87
75134;HTU21D;73631;44.326;40.200;2023-12-20T10:49:47;15.28;61.92
75134;HTU21D;73631;44.326;40.200;2023-12-20T10:52:14;15.29;61.67
75134;HTU21D;73631;44.326;40.200;2023-12-20T10:54:43;15.34;61.40
75134;HTU21D;73631;44.326;40.200;2023-12-20T10:57:11;15.38;61.20
75134;HTU21D;73631;44.326;40.200;2023-12-20T10:59:39;15.40;60.87
75134;HTU21D;73631;44.326;40.200;2023-12-20T11:02:06;15.41;60.73
75134;HTU21D;73631;44.326;40.200;2023-12-20T11:05:16;15.36;61.76
75134;HTU21D;73631;44.326;40.200;2023-12-20T11:08:00;15.25;60.80
75134;HTU21D;73631;44.326;40.200;2023-12-20T11:13:28;15.02;60.58
75134;HTU21D;73631;44.326;40.200;2023-12-20T11:15:59;14.94;60.51
75134;HTU21D;73631;44.326;40.200;2023-12-20T11:18:30;14.81;60.20
75134;HTU21D;73631;44.326;40.200;2023-12-20T11:21:04;14.69;60.23
75134;HTU21D;73631;44.326;40.200;2023-12-20T11:23:32;14.60;60.47
75134;HTU21D;73631;44.326;40.200;2023-12-20T11:26:02;14.57;60.69
75134;HTU21D;73631;44.326;40.200;2023-12-20T11:28:29;14.56;60.35
75134;HTU21D;73631;44.326;40.200;2023-12-20T11:30:57;14.51;60.00
75134;HTU21D;73631;44.326;40.200;2023-12-20T11:33:35;14.44;59.96
75134;HTU21D;73631;44.326;40.200;2023-12-20T11:36:13;14.38;59.96
75134;HTU21D;73631;44.326;40.200;2023-12-20T11:38:59;14.30;60.52
75134;HTU21D;73631;44.326;40.200;2023-12-20T11:41:26;14.22;59.88
75134;HTU21D;73631;44.326;40.200;2023-12-20T11:43:53;14.17;59.85
75134;HTU21D;73631;44.326;40.200;2023-12-20T11:46:22;14.09;59.81
75134;HTU21D;73631;44.326;40.200;2023-12-20T11:48:51;14.05;59.59
75134;HTU21D;73631;44.326;40.200;2023-12-20T11:51:18;13.96;59.54
75134;HTU21D;73631;44.326;40.200;2023-12-20T11:53:44;13.89;59.57
75134;HTU21D;73631;44.326;40.200;2023-12-20T11:56:11;13.79;59.64
75134;HTU21D;73631;44.326;40.200;2023-12-20T11:58:38;13.67;59.41
75134;HTU21D;73631;44.326;40.200;2023-12-20T12:01:07;13.55;59.60
75134;HTU21D;73631;44.326;40.200;2023-12-20T12:03:35;13.44;59.70
75134;HTU21D;73631;44.326;40.200;2023-12-20T12:06:03;13.34;59.73
75134;HTU21D;73631;44.326;40.200;2023-12-20T12:08:30;13.25;59.78
75134;HTU21D;73631;44.326;40.200;2023-12-20T12:10:57;13.17;59.80
75134;HTU21D;73631;44.326;40.200;2023-12-20T12:13:23;13.08;59.96
75134;HTU21D;73631;44.326;40.200;2023-12-20T12:15:53;13.00;60.13
75134;HTU21D;73631;44.326;40.200;2023-12-20T12:18:20;12.94;60.25
75134;HTU21D;73631;44.326;40.200;2023-12-20T12:20:47;12.88;60.09
75134;HTU21D;73631;44.326;40.200;2023-12-20T12:23:14;12.82;60.24
75134;HTU21D;73631;44.326;40.200;2023-12-20T12:25:41;12.80;60.25
75134;HTU21D;73631;44.326;40.200;2023-12-20T12:28:08;12.75;60.19
75134;HTU21D;73631;44.326;40.200;2023-12-20T12:30:35;12.69;60.11
75134;HTU21D;73631;44.326;40.200;2023-12-20T12:33:03;12.64;60.14
75134;HTU21D;73631;44.326;40.200;2023-12-20T12:35:31;12.61;60.22
75134;HTU21D;73631;44.326;40.200;2023-12-20T12:37:59;12.58;60.11
75134;HTU21D;73631;44.326;40.200;2023-12-20T12:40:26;12.51;60.08
75134;HTU21D;73631;44.326;40.200;2023-12-20T12:42:53;12.44;60.08
75134;HTU21D;73631;44.326;40.200;2023-12-20T12:45:19;12.36;60.18
75134;HTU21D;73631;44.326;40.200;2023-12-20T12:47:46;12.29;60.24
75134;HTU21D;73631;44.326;40.200;2023-12-20T12:50:13;12.22;60.29
75134;HTU21D;73631;44.326;40.200;2023-12-20T12:52:42;12.17;60.36
75134;HTU21D;73631;44.326;40.200;2023-12-20T12:55:08;12.10;60.39
75134;HTU21D;73631;44.326;40.200;2023-12-20T12:57:35;12.00;60.44
75134;HTU21D;73631;44.326;40.200;2023-12-20T13:00:01;11.93;60.57
75134;HTU21D;73631;44.326;40.200;2023-12-20T13:02:29;11.84;60.62
75134;HTU21D;73631;44.326;40.200;2023-12-20T13:04:57;11.74;60.73
75134;HTU21D;73631;44.326;40.200;2023-12-20T13:07:23;11.64;60.84
75134;HTU21D;73631;44.326;40.200;2023-12-20T13:09:50;11.53;60.98
75134;HTU21D;73631;44.326;40.200;2023-12-20T13:12:16;11.41;61.06
75134;HTU21D;73631;44.326;40.200;2023-12-20T13:14:43;11.27;61.18
75134;HTU21D;73631;44.326;40.200;2023-12-20T13:17:10;11.12;61.25
75134;HTU21D;73631;44.326;40.200;2023-12-20T13:19:36;10.96;61.37
75134;HTU21D;73631;44.326;40.200;2023-12-20T13:22:03;10.78;61.45
75134;HTU21D;73631;44.326;40.200;2023-12-20T13:24:30;10.62;61.57
75134;HTU21D;73631;44.326;40.200;2023-12-20T13:26:56;10.43;61.65
75134;HTU21D;73631;44.326;40.200;2023-12-20T13:29:24;10.23;61.79
75134;HTU21D;73631;44.326;40.200;2023-12-20T13:31:53;10.05;61.94
75134;HTU21D;73631;44.326;40.200;2023-12-20T13:34:20;9.88;62.06
75134;HTU21D;73631;44.326;40.200;2023-12-20T13:36:47;9.69;62.20
75134;HTU21D;73631;44.326;40.200;2023-12-20T13:39:16;9.52;62.30
75134;HTU21D;73631;44.326;40.200;2023-12-20T13:41:44;9.36;62.40
75134;HTU21D;73631;44.326;40.200;2023-12-20T13:44:11;9.18;62.47
75134;HTU21D;73631;44.326;40.200;2023-12-20T13:46:41;9.01;62.57
75134;HTU21D;73631;44.326;40.200;2023-12-20T13:49:08;8.81;62.65
75134;HTU21D;73631;44.326;40.200;2023-12-20T13:51:35;8.63;62.82
75134;HTU21D;73631;44.326;40.200;2023-12-20T13:54:01;8.46;62.95
75134;HTU21D;73631;44.326;40.200;2023-12-20T13:56:29;8.29;63.11
75134;HTU21D;73631;44.326;40.200;2023-12-20T13:58:56;8.13;63.29
75134;HTU21D;73631;44.326;40.200;2023-12-20T14:01:23;7.98;63.44
75134;HTU21D;73631;44.326;40.200;2023-12-20T14:03:51;7.83;63.56
75134;HTU21D;73631;44.326;40.200;2023-12-20T14:06:20;7.71;63.73
75134;HTU21D;73631;44.326;40.200;2023-12-20T14:08:47;7.57;63.87
75134;HTU21D;73631;44.326;40.200;2023-12-20T14:11:14;7.45;63.99
75134;HTU21D;73631;44.326;40.200;2023-12-20T14:13:43;7.34;64.12
75134;HTU21D;73631;44.326;40.200;2023-12-20T14:16:11;7.23;64.20
75134;HTU21D;73631;44.326;40.200;2023-12-20T14:18:41;7.11;64.27
75134;HTU21D;73631;44.326;40.200;2023-12-20T14:21:09;6.98;64.37
75134;HTU21D;73631;44.326;40.200;2023-12-20T14:23:36;6.87;64.44
75134;HTU21D;73631;44.326;40.200;2023-12-20T14:26:04;6.76;64.52
75134;HTU21D;73631;44.326;40.200;2023-12-20T14:28:31;6.65;64.67
75134;HTU21D;73631;44.326;40.200;2023-12-20T14:30:59;6.56;64.83
75134;HTU21D;73631;44.326;40.200;2023-12-20T14:33:26;6.48;64.98
75134;HTU21D;73631;44.326;40.200;2023-12-20T14:35:54;6.39;65.11
75134;HTU21D;73631;44.326;40.200;2023-12-20T14:38:21;6.34;65.25
75134;HTU21D;73631;44.326;40.200;2023-12-20T14:40:49;6.26;65.37
75134;HTU21D;73631;44.326;40.200;2023-12-20T14:43:17;6.20;65.48
75134;HTU21D;73631;44.326;40.200;2023-12-20T14:45:44;6.12;65.57
75134;HTU21D;73631;44.326;40.200;2023-12-20T14:48:11;6.06;65.62
75134;HTU21D;73631;44.326;40.200;2023-12-20T14:50:38;5.97;65.68
75134;HTU21D;73631;44.326;40.200;2023-12-20T14:53:08;5.89;65.75
75134;HTU21D;73631;44.326;40.200;2023-12-20T14:55:35;5.80;65.78
75134;HTU21D;73631;44.326;40.200;2023-12-20T14:58:03;5.72;65.82
75134;HTU21D;73631;44.326;40.200;2023-12-20T15:00:32;5.63;65.94
75134;HTU21D;73631;44.326;40.200;2023-12-20T15:03:01;5.57;66.01
75134;HTU21D;73631;44.326;40.200;2023-12-20T15:05:34;5.50;66.09
75134;HTU21D;73631;44.326;40.200;2023-12-20T15:08:03;5.41;66.09
75134;HTU21D;73631;44.326;40.200;2023-12-20T15:10:32;5.36;66.16
75134;HTU21D;73631;44.326;40.200;2023-12-20T15:12:59;5.28;66.27